sensor_id;sensor_type;location;lat;lon;timestamp;pressure;altitude;pressure_sealevel;temperature;humidity
60373;BME280;46216;52.220;5.134;2023-01-29T00:01:55;103160.94;;;4.56;100.00
60373;BME280;46216;52.220;5.134;2023-01-29T00:04:20;103155.63;;;4.58;100.00
60373;BME280;46216;52.220;5.134;2023-01-29T00:06:46;103155.66;;;4.56;100.00
60373;BME280;46216;52.220;5.134;2023-01-29T00:09:12;103153.84;;;4.61;100.00
60373;BME280;46216;52.220;5.134;2023-01-29T00:11:38;103150.34;;;4.58;100.00
60373;BME280;46216;52.220;5.134;2023-01-29T00:14:04;103147.72;;;4.59;100.00
60373;BME280;46216;52.220;5.134;2023-01-29T00:16:29;103148.59;;;4.58;100.00
60373;BME280;46216;52.220;5.134;2023-01-29T00:18:54;103153.84;;;4.61;100.00
60373;BME280;46216;52.220;5.134;2023-01-29T00:21:21;103146.75;;;4.66;100.00
60373;BME280;46216;52.220;5.134;2023-01-29T00:23:47;103150.28;;;4.65;100.00
60373;BME280;46216;52.220;5.134;2023-01-29T00:26:13;103152.06;;;4.63;100.00
60373;BME280;46216;52.220;5.134;2023-01-29T00:28:38;103157.31;;;4.66;100.00
60373;BME280;46216;52.220;5.134;2023-01-29T00:31:12;103151.19;;;4.63;100.00
60373;BME280;46216;52.220;5.134;2023-01-29T00:33:38;103148.53;;;4.64;100.00
60373;BME280;46216;52.220;5.134;2023-01-29T00:36:05;103145.00;;;4.65;100.00
60373;BME280;46216;52.220;5.134;2023-01-29T00:38:31;103143.25;;;4.64;100.00
60373;BME280;46216;52.220;5.134;2023-01-29T00:40:57;103130.88;;;4.69;100.00
60373;BME280;46216;52.220;5.134;2023-01-29T00:43:41;103123.78;;;4.71;100.00
60373;BME280;46216;52.220;5.134;2023-01-29T00:46:25;103127.34;;;4.70;100.00
60373;BME280;46216;52.220;5.134;2023-01-29T00:48:50;103123.78;;;4.73;100.00
60373;BME280;46216;52.220;5.134;2023-01-29T00:51:15;103116.75;;;4.70;100.00
60373;BME280;46216;52.220;5.134;2023-01-29T00:53:40;103122.03;;;4.72;100.00
60373;BME280;46216;52.220;5.134;2023-01-29T00:56:06;103121.13;;;4.74;100.00
60373;BME280;46216;52.220;5.134;2023-01-29T00:58:31;103114.06;;;4.75;100.00
60373;BME280;46216;52.220;5.134;2023-01-29T01:01:00;103114.06;;;4.77;100.00
60373;BME280;46216;52.220;5.134;2023-01-29T01:03:27;103109.69;;;4.76;100.00
60373;BME280;46216;52.220;5.134;2023-01-29T01:06:02;103105.22;;;4.79;100.00
60373;BME280;46216;52.220;5.134;2023-01-29T01:08:28;103106.97;;;4.80;100.00
60373;BME280;46216;52.220;5.134;2023-01-29T01:11:12;103109.63;;;4.79;100.00
60373;BME280;46216;52.220;5.134;2023-01-29T01:13:38;103108.78;;;4.75;100.00
60373;BME280;46216;52.220;5.134;2023-01-29T01:16:11;103113.16;;;4.79;100.00
60373;BME280;46216;52.220;5.134;2023-01-29T01:18:37;103114.06;;;4.77;100.00
60373;BME280;46216;52.220;5.134;2023-01-29T01:21:03;103122.81;;;4.79;100.00
60373;BME280;46216;52.220;5.134;2023-01-29T01:23:28;103120.22;;;4.77;100.00
60373;BME280;46216;52.220;5.134;2023-01-29T01:25:54;103128.09;;;4.80;100.00
60373;BME280;46216;52.220;5.134;2023-01-29T01:28:19;103135.22;;;4.72;100.00
60373;BME280;46216;52.220;5.134;2023-01-29T01:30:45;103137.00;;;4.73;100.00
60373;BME280;46216;52.220;5.134;2023-01-29T01:33:10;103131.69;;;4.74;100.00
60373;BME280;46216;52.220;5.134;2023-01-29T01:35:37;103136.13;;;4.72;100.00
60373;BME280;46216;52.220;5.134;2023-01-29T01:38:03;103122.03;;;4.73;100.00
60373;BME280;46216;52.220;5.134;2023-01-29T01:40:28;103129.06;;;4.71;100.00
60373;BME280;46216;52.220;5.134;2023-01-29T01:42:56;103123.84;;;4.67;100.00
60373;BME280;46216;52.220;5.134;2023-01-29T01:45:29;103120.31;;;4.69;100.00
60373;BME280;46216;52.220;5.134;2023-01-29T01:48:00;103120.31;;;4.69;100.00
60373;BME280;46216;52.220;5.134;2023-01-29T01:50:36;103122.94;;;4.68;100.00
60373;BME280;46216;52.220;5.134;2023-01-29T01:53:11;103126.47;;;4.68;100.00
60373;BME280;46216;52.220;5.134;2023-01-29T01:55:43;103127.38;;;4.67;100.00
60373;BME280;46216;52.220;5.134;2023-01-29T01:58:13;103129.09;;;4.68;100.00
60373;BME280;46216;52.220;5.134;2023-01-29T02:00:41;103134.44;;;4.65;100.00
60373;BME280;46216;52.220;5.134;2023-01-29T02:03:09;103128.22;;;4.68;100.00
60373;BME280;46216;52.220;5.134;2023-01-29T02:05:55;103136.22;;;4.63;100.00
60373;BME280;46216;52.220;5.134;2023-01-29T02:08:56;103132.72;;;4.61;100.00
60373;BME280;46216;52.220;5.134;2023-01-29T02:11:42;103122.16;;;4.61;100.00
60373;BME280;46216;52.220;5.134;2023-01-29T02:14:07;103119.50;;;4.63;100.00
60373;BME280;46216;52.220;5.134;2023-01-29T02:16:34;103127.44;;;4.61;100.00
60373;BME280;46216;52.220;5.134;2023-01-29T02:19:00;103118.69;;;4.56;100.00
60373;BME280;46216;52.220;5.134;2023-01-29T02:26:58;103131.00;;;4.57;100.00
60373;BME280;46216;52.220;5.134;2023-01-29T02:29:35;103139.75;;;4.62;100.00
60373;BME280;46216;52.220;5.134;2023-01-29T02:32:18;103135.34;;;4.61;100.00
60373;BME280;46216;52.220;5.134;2023-01-29T02:38:10;103150.34;;;4.59;100.00
60373;BME280;46216;52.220;5.134;2023-01-29T02:40:49;103140.66;;;4.60;100.00
60373;BME280;46216;52.220;5.134;2023-01-29T02:43:26;103139.78;;;4.59;100.00
60373;BME280;46216;52.220;5.134;2023-01-29T02:46:19;103131.88;;;4.58;100.00
60373;BME280;46216;52.220;5.134;2023-01-29T02:48:58;103137.13;;;4.61;100.00
60373;BME280;46216;52.220;5.134;2023-01-29T02:54:05;103137.97;;;4.64;100.00
60373;BME280;46216;52.220;5.134;2023-01-29T02:56:35;103136.25;;;4.60;100.00
60373;BME280;46216;52.220;5.134;2023-01-29T02:59:07;103131.84;;;4.61;100.00
60373;BME280;46216;52.220;5.134;2023-01-29T03:01:47;103123.00;;;4.62;100.00
60373;BME280;46216;52.220;5.134;2023-01-29T03:04:19;103130.06;;;4.63;100.00
60373;BME280;46216;52.220;5.134;2023-01-29T03:06:57;103114.22;;;4.63;100.00
60373;BME280;46216;52.220;5.134;2023-01-29T03:09:37;103112.44;;;4.63;100.00
60373;BME280;46216;52.220;5.134;2023-01-29T03:12:12;103098.38;;;4.61;100.00
60373;BME280;46216;52.220;5.134;2023-01-29T03:15:00;103115.97;;;4.64;100.00
60373;BME280;46216;52.220;5.134;2023-01-29T03:17:43;103112.44;;;4.62;100.00
60373;BME280;46216;52.220;5.134;2023-01-29T03:20:14;103112.47;;;4.60;100.00
60373;BME280;46216;52.220;5.134;2023-01-29T03:22:43;103106.31;;;4.58;100.00
60373;BME280;46216;52.220;5.134;2023-01-29T03:25:10;103104.53;;;4.62;100.00
60373;BME280;46216;52.220;5.134;2023-01-29T03:27:59;103099.28;;;4.60;100.00
60373;BME280;46216;52.220;5.134;2023-01-29T03:30:56;103096.63;;;4.60;100.00
60373;BME280;46216;52.220;5.134;2023-01-29T03:33:49;103086.94;;;4.62;100.00
60373;BME280;46216;52.220;5.134;2023-01-29T03:36:22;103078.13;;;4.62;100.00
60373;BME280;46216;52.220;5.134;2023-01-29T03:38:51;103069.34;;;4.60;100.00
60373;BME280;46216;52.220;5.134;2023-01-29T03:41:35;103076.41;;;4.58;100.00
60373;BME280;46216;52.220;5.134;2023-01-29T03:44:18;103077.34;;;4.54;100.00
60373;BME280;46216;52.220;5.134;2023-01-29T03:46:56;103070.31;;;4.53;100.00
60373;BME280;46216;52.220;5.134;2023-01-29T03:49:31;103071.16;;;4.56;100.00
60373;BME280;46216;52.220;5.134;2023-01-29T03:52:18;103049.19;;;4.53;100.00
60373;BME280;46216;52.220;5.134;2023-01-29T03:54:57;103064.16;;;4.52;100.00
60373;BME280;46216;52.220;5.134;2023-01-29T03:57:39;103063.28;;;4.53;100.00
60373;BME280;46216;52.220;5.134;2023-01-29T04:00:19;103047.44;;;4.53;100.00
60373;BME280;46216;52.220;5.134;2023-01-29T04:02:55;103058.00;;;4.51;100.00
60373;BME280;46216;52.220;5.134;2023-01-29T04:05:29;103053.56;;;4.54;100.00
60373;BME280;46216;52.220;5.134;2023-01-29T04:08:04;103060.63;;;4.53;100.00
60373;BME280;46216;52.220;5.134;2023-01-29T04:10:32;103054.41;;;4.57;100.00
60373;BME280;46216;52.220;5.134;2023-01-29T04:13:06;103065.88;;;4.56;100.00
60373;BME280;46216;52.220;5.134;2023-01-29T04:15:37;103052.75;;;4.50;100.00
60373;BME280;46216;52.220;5.134;2023-01-29T04:18:06;103060.63;;;4.53;100.00
60373;BME280;46216;52.220;5.134;2023-01-29T04:20:31;103049.22;;;4.49;100.00
60373;BME280;46216;52.220;5.134;2023-01-29T04:22:57;103052.78;;;4.48;100.00
60373;BME280;46216;52.220;5.134;2023-01-29T04:25:26;103055.41;;;4.47;100.00
60373;BME280;46216;52.220;5.134;2023-01-29T04:28:16;103046.69;;;4.42;100.00
60373;BME280;46216;52.220;5.134;2023-01-29T04:33:20;103047.56;;;4.42;100.00
60373;BME280;46216;52.220;5.134;2023-01-29T04:43:57;103023.84;;;4.38;100.00
60373;BME280;46216;52.220;5.134;2023-01-29T04:46:33;103027.38;;;4.37;100.00
60373;BME280;46216;52.220;5.134;2023-01-29T04:49:12;103018.56;;;4.38;100.00
60373;BME280;46216;52.220;5.134;2023-01-29T04:52:07;103014.25;;;4.32;100.00
60373;BME280;46216;52.220;5.134;2023-01-29T04:54:50;103011.47;;;4.41;100.00
60373;BME280;46216;52.220;5.134;2023-01-29T04:57:49;103012.34;;;4.43;100.00
60373;BME280;46216;52.220;5.134;2023-01-29T05:00:25;103007.09;;;4.40;100.00
60373;BME280;46216;52.220;5.134;2023-01-29T05:02:53;103008.88;;;4.38;100.00
60373;BME280;46216;52.220;5.134;2023-01-29T05:05:20;102997.41;;;4.41;100.00
60373;BME280;46216;52.220;5.134;2023-01-29T05:07:46;103000.94;;;4.40;100.00
60373;BME280;46216;52.220;5.134;2023-01-29T05:10:14;103002.72;;;4.39;100.00
60373;BME280;46216;52.220;5.134;2023-01-29T05:12:42;103009.75;;;4.37;100.00
60373;BME280;46216;52.220;5.134;2023-01-29T05:15:13;103010.63;;;4.39;100.00
60373;BME280;46216;52.220;5.134;2023-01-29T05:17:41;103007.09;;;4.40;100.00
60373;BME280;46216;52.220;5.134;2023-01-29T05:20:08;103014.19;;;4.35;100.00
60373;BME280;46216;52.220;5.134;2023-01-29T05:22:36;103007.16;;;4.36;100.00
60373;BME280;46216;52.220;5.134;2023-01-29T05:25:12;103011.50;;;4.40;100.00
60373;BME280;46216;52.220;5.134;2023-01-29T05:27:43;103007.97;;;4.41;100.00
60373;BME280;46216;52.220;5.134;2023-01-29T05:30:27;103006.25;;;4.37;100.00
60373;BME280;46216;52.220;5.134;2023-01-29T05:32:52;102993.91;;;4.39;100.00
60373;BME280;46216;52.220;5.134;2023-01-29T05:35:18;102994.78;;;4.39;100.00
60373;BME280;46216;52.220;5.134;2023-01-29T05:37:43;102996.53;;;4.42;100.00
60373;BME280;46216;52.220;5.134;2023-01-29T05:40:10;103006.22;;;4.40;100.00
60373;BME280;46216;52.220;5.134;2023-01-29T05:42:35;103011.50;;;4.40;100.00
60373;BME280;46216;52.220;5.134;2023-01-29T05:45:00;103014.94;;;4.45;100.00
60373;BME280;46216;52.220;5.134;2023-01-29T05:47:26;103011.44;;;4.44;100.00
60373;BME280;46216;52.220;5.134;2023-01-29T05:49:51;103006.19;;;4.43;100.00
60373;BME280;46216;52.220;5.134;2023-01-29T05:52:16;103006.19;;;4.43;100.00
60373;BME280;46216;52.220;5.134;2023-01-29T05:54:42;103005.28;;;4.45;100.00
60373;BME280;46216;52.220;5.134;2023-01-29T05:57:07;102996.50;;;4.43;100.00
60373;BME280;46216;52.220;5.134;2023-01-29T05:59:32;102995.63;;;4.43;100.00
60373;BME280;46216;52.220;5.134;2023-01-29T06:01:58;102985.03;;;4.46;100.00
60373;BME280;46216;52.220;5.134;2023-01-29T06:04:23;102971.78;;;4.47;100.00
60373;BME280;46216;52.220;5.134;2023-01-29T06:06:48;102979.75;;;4.46;100.00
60373;BME280;46216;52.220;5.134;2023-01-29T06:09:14;102968.31;;;4.45;100.00
60373;BME280;46216;52.220;5.134;2023-01-29T06:11:39;102966.59;;;4.43;100.00
60373;BME280;46216;52.220;5.134;2023-01-29T06:14:05;102971.81;;;4.44;100.00
60373;BME280;46216;52.220;5.134;2023-01-29T06:16:30;102960.47;;;4.39;100.00
60373;BME280;46216;52.220;5.134;2023-01-29T06:18:55;102963.03;;;4.44;100.00
60373;BME280;46216;52.220;5.134;2023-01-29T06:21:20;102963.94;;;4.43;100.00
60373;BME280;46216;52.220;5.134;2023-01-29T06:23:46;102959.50;;;4.45;100.00
60373;BME280;46216;52.220;5.134;2023-01-29T06:26:13;102953.41;;;4.40;100.00
60373;BME280;46216;52.220;5.134;2023-01-29T06:28:39;102954.22;;;4.45;100.00
60373;BME280;46216;52.220;5.134;2023-01-29T06:31:05;102957.75;;;4.44;100.00
60373;BME280;46216;52.220;5.134;2023-01-29T06:33:31;102949.91;;;4.38;100.00
60373;BME280;46216;52.220;5.134;2023-01-29T06:36:02;102944.59;;;4.41;100.00
60373;BME280;46216;52.220;5.134;2023-01-29T06:38:29;102955.16;;;4.41;100.00
60373;BME280;46216;52.220;5.134;2023-01-29T06:40:55;102959.59;;;4.37;100.00
60373;BME280;46216;52.220;5.134;2023-01-29T06:43:21;102958.72;;;4.38;100.00
60373;BME280;46216;52.220;5.134;2023-01-29T06:45:53;102971.06;;;4.35;100.00
60373;BME280;46216;52.220;5.134;2023-01-29T06:48:18;102958.72;;;4.38;100.00
60373;BME280;46216;52.220;5.134;2023-01-29T06:50:45;102969.28;;;4.37;100.00
60373;BME280;46216;52.220;5.134;2023-01-29T06:53:10;102956.97;;;4.37;100.00
60373;BME280;46216;52.220;5.134;2023-01-29T06:55:36;102959.59;;;4.37;100.00
60373;BME280;46216;52.220;5.134;2023-01-29T06:58:06;102949.94;;;4.36;100.00
60373;BME280;46216;52.220;5.134;2023-01-29T07:00:32;102949.09;;;4.33;100.00
60373;BME280;46216;52.220;5.134;2023-01-29T07:02:57;102932.44;;;4.27;100.00
60373;BME280;46216;52.220;5.134;2023-01-29T07:05:22;102936.84;;;4.27;100.00
60373;BME280;46216;52.220;5.134;2023-01-29T07:07:48;102934.22;;;4.29;100.00
60373;BME280;46216;52.220;5.134;2023-01-29T07:10:13;102942.13;;;4.27;100.00
60373;BME280;46216;52.220;5.134;2023-01-29T07:12:38;102942.13;;;4.29;100.00
60373;BME280;46216;52.220;5.134;2023-01-29T07:15:04;102948.28;;;4.29;100.00
60373;BME280;46216;52.220;5.134;2023-01-29T07:17:30;102945.63;;;4.27;100.00
60373;BME280;46216;52.220;5.134;2023-01-29T07:19:55;102950.06;;;4.29;100.00
60373;BME280;46216;52.220;5.134;2023-01-29T07:22:20;102958.84;;;4.27;100.00
60373;BME280;46216;52.220;5.134;2023-01-29T07:24:46;102951.84;;;4.25;100.00
60373;BME280;46216;52.220;5.134;2023-01-29T07:27:12;102951.78;;;4.30;100.00
60373;BME280;46216;52.220;5.134;2023-01-29T07:29:37;102946.50;;;4.30;100.00
60373;BME280;46216;52.220;5.134;2023-01-29T07:32:03;102945.59;;;4.32;100.00
60373;BME280;46216;52.220;5.134;2023-01-29T07:34:28;102948.25;;;4.31;100.00
60373;BME280;46216;52.220;5.134;2023-01-29T07:36:54;102948.25;;;4.31;100.00
60373;BME280;46216;52.220;5.134;2023-01-29T07:39:21;102951.78;;;4.30;100.00
60373;BME280;46216;52.220;5.134;2023-01-29T07:41:46;102941.19;;;4.33;100.00
60373;BME280;46216;52.220;5.134;2023-01-29T07:44:11;102942.09;;;4.32;100.00
60373;BME280;46216;52.220;5.134;2023-01-29T07:46:37;102937.66;;;4.34;100.00
60373;BME280;46216;52.220;5.134;2023-01-29T07:49:02;102937.66;;;4.35;100.00
60373;BME280;46216;52.220;5.134;2023-01-29T07:51:27;102932.38;;;4.35;100.00
60373;BME280;46216;52.220;5.134;2023-01-29T07:53:53;102919.16;;;4.34;100.00
60373;BME280;46216;52.220;5.134;2023-01-29T07:56:18;102917.44;;;4.33;100.00
60373;BME280;46216;52.220;5.134;2023-01-29T07:58:43;102904.19;;;4.36;100.00
60373;BME280;46216;52.220;5.134;2023-01-29T08:01:09;102907.78;;;4.32;100.00
60373;BME280;46216;52.220;5.134;2023-01-29T08:03:35;102905.97;;;4.35;100.00
60373;BME280;46216;52.220;5.134;2023-01-29T08:06:02;102902.44;;;4.35;100.00
60373;BME280;46216;52.220;5.134;2023-01-29T08:08:27;102910.41;;;4.32;100.00
60373;BME280;46216;52.220;5.134;2023-01-29T08:10:53;102906.91;;;4.30;100.00
60373;BME280;46216;52.220;5.134;2023-01-29T08:13:18;102904.16;;;4.39;100.00
60373;BME280;46216;52.220;5.134;2023-01-29T08:15:44;102914.72;;;4.39;100.00
60373;BME280;46216;52.220;5.134;2023-01-29T08:18:09;102913.00;;;4.35;100.00
60373;BME280;46216;52.220;5.134;2023-01-29T08:20:35;102912.94;;;4.38;100.00
60373;BME280;46216;52.220;5.134;2023-01-29T08:23:02;102912.88;;;4.44;100.00
60373;BME280;46216;52.220;5.134;2023-01-29T08:25:28;102913.84;;;4.37;100.00
60373;BME280;46216;52.220;5.134;2023-01-29T08:27:58;102907.66;;;4.39;100.00
60373;BME280;46216;52.220;5.134;2023-01-29T08:30:25;102905.00;;;4.42;100.00
60373;BME280;46216;52.220;5.134;2023-01-29T08:32:50;102900.56;;;4.43;100.00
60373;BME280;46216;52.220;5.134;2023-01-29T08:35:15;102904.03;;;4.46;100.00
60373;BME280;46216;52.220;5.134;2023-01-29T08:37:41;102897.91;;;4.46;100.00
60373;BME280;46216;52.220;5.134;2023-01-29T08:40:07;102886.47;;;4.44;100.00
60373;BME280;46216;52.220;5.134;2023-01-29T08:42:33;102888.13;;;4.51;100.00
60373;BME280;46216;52.220;5.134;2023-01-29T08:44:59;102888.06;;;4.56;100.00
60373;BME280;46216;52.220;5.134;2023-01-29T08:47:24;102889.91;;;4.52;100.00
60373;BME280;46216;52.220;5.134;2023-01-29T08:49:49;102887.16;;;4.57;100.00
60373;BME280;46216;52.220;5.134;2023-01-29T08:52:15;102875.69;;;4.59;100.00
60373;BME280;46216;52.220;5.134;2023-01-29T08:54:40;102882.84;;;4.53;100.00
60373;BME280;46216;52.220;5.134;2023-01-29T08:57:05;102878.34;;;4.59;100.00
60373;BME280;46216;52.220;5.134;2023-01-29T08:59:31;102880.97;;;4.59;100.00
60373;BME280;46216;52.220;5.134;2023-01-29T09:01:56;102876.53;;;4.61;100.00
60373;BME280;46216;52.220;5.134;2023-01-29T09:04:22;102867.66;;;4.67;100.00
60373;BME280;46216;52.220;5.134;2023-01-29T09:06:47;102872.94;;;4.67;100.00
60373;BME280;46216;52.220;5.134;2023-01-29T09:09:12;102872.03;;;4.69;100.00
60373;BME280;46216;52.220;5.134;2023-01-29T09:11:38;102873.75;;;4.70;100.00
60373;BME280;46216;52.220;5.134;2023-01-29T09:14:04;102869.28;;;4.76;100.00
60373;BME280;46216;52.220;5.134;2023-01-29T09:16:30;102878.94;;;4.77;100.00
60373;BME280;46216;52.220;5.134;2023-01-29T09:18:55;102874.59;;;4.74;100.00
60373;BME280;46216;52.220;5.134;2023-01-29T09:21:21;102866.53;;;4.82;100.00
60373;BME280;46216;52.220;5.134;2023-01-29T09:23:46;102864.75;;;4.84;100.00
60373;BME280;46216;52.220;5.134;2023-01-29T09:26:11;102875.31;;;4.84;100.00
60373;BME280;46216;52.220;5.134;2023-01-29T09:28:37;102876.28;;;4.78;100.00
60373;BME280;46216;52.220;5.134;2023-01-29T09:31:02;102879.69;;;4.86;100.00
60373;BME280;46216;52.220;5.134;2023-01-29T09:33:28;102870.81;;;4.90;100.00
60373;BME280;46216;52.220;5.134;2023-01-29T09:35:55;102878.69;;;4.92;100.00
60373;BME280;46216;52.220;5.134;2023-01-29T09:38:20;102875.03;;;4.99;100.00
60373;BME280;46216;52.220;5.134;2023-01-29T09:43:53;102877.72;;;4.97;100.00
60373;BME280;46216;52.220;5.134;2023-01-29T09:46:40;102879.50;;;4.95;100.00
60373;BME280;46216;52.220;5.134;2023-01-29T09:49:11;102874.06;;;5.06;100.00
60373;BME280;46216;52.220;5.134;2023-01-29T09:51:40;102869.75;;;4.99;100.00
60373;BME280;46216;52.220;5.134;2023-01-29T09:54:15;102866.16;;;5.05;100.00
60373;BME280;46216;52.220;5.134;2023-01-29T09:56:44;102872.34;;;5.02;100.00
60373;BME280;46216;52.220;5.134;2023-01-29T09:59:12;102863.50;;;5.06;100.00
60373;BME280;46216;52.220;5.134;2023-01-29T10:13:04;102859.75;;;5.18;100.00
60373;BME280;46216;52.220;5.134;2023-01-29T10:18:46;102836.06;;;5.13;100.00
60373;BME280;46216;52.220;5.134;2023-01-29T10:24:34;102835.25;;;5.08;100.00
60373;BME280;46216;52.220;5.134;2023-01-29T10:27:01;102829.00;;;5.12;100.00
60373;BME280;46216;52.220;5.134;2023-01-29T10:29:28;102817.56;;;5.12;100.00
60373;BME280;46216;52.220;5.134;2023-01-29T10:31:57;102820.19;;;5.13;100.00
60373;BME280;46216;52.220;5.134;2023-01-29T10:37:00;102822.84;;;5.13;100.00
60373;BME280;46216;52.220;5.134;2023-01-29T10:39:30;102821.94;;;5.14;100.00
60373;BME280;46216;52.220;5.134;2023-01-29T10:50:17;102805.91;;;5.24;100.00
60373;BME280;46216;52.220;5.134;2023-01-29T10:55:55;102811.22;;;5.24;100.00
60373;BME280;46216;52.220;5.134;2023-01-29T10:58:30;102798.97;;;5.18;100.00
60373;BME280;46216;52.220;5.134;2023-01-29T11:00:57;102796.25;;;5.21;100.00
60373;BME280;46216;52.220;5.134;2023-01-29T11:03:25;102790.94;;;5.22;100.00
60373;BME280;46216;52.220;5.134;2023-01-29T11:08:48;102784.88;;;5.17;100.00
60373;BME280;46216;52.220;5.134;2023-01-29T11:11:18;102778.78;;;5.14;100.00
60373;BME280;46216;52.220;5.134;2023-01-29T11:13:53;102774.31;;;5.17;100.00
60373;BME280;46216;52.220;5.134;2023-01-29T11:16:19;102784.94;;;5.14;100.00
60373;BME280;46216;52.220;5.134;2023-01-29T11:18:56;102781.38;;;5.15;100.00
60373;BME280;46216;52.220;5.134;2023-01-29T11:21:24;102783.06;;;5.19;100.00
60373;BME280;46216;52.220;5.134;2023-01-29T11:24:04;102774.31;;;5.17;100.00
60373;BME280;46216;52.220;5.134;2023-01-29T11:26:34;102772.56;;;5.16;100.00
60373;BME280;46216;52.220;5.134;2023-01-29T11:28:59;102767.19;;;5.19;100.00
60373;BME280;46216;52.220;5.134;2023-01-29T11:31:28;102769.84;;;5.19;100.00
60373;BME280;46216;52.220;5.134;2023-01-29T11:34:03;102766.31;;;5.20;100.00
60373;BME280;46216;52.220;5.134;2023-01-29T11:36:34;102762.75;;;5.21;100.00
60373;BME280;46216;52.220;5.134;2023-01-29T11:39:21;102758.34;;;5.24;100.00
60373;BME280;46216;52.220;5.134;2023-01-29T11:41:57;102762.81;;;5.20;100.00
60373;BME280;46216;52.220;5.134;2023-01-29T11:44:29;102755.81;;;5.17;100.00
60373;BME280;46216;52.220;5.134;2023-01-29T11:46:58;102752.25;;;5.18;100.00
60373;BME280;46216;52.220;5.134;2023-01-29T11:49:33;102746.06;;;5.19;100.00
60373;BME280;46216;52.220;5.134;2023-01-29T11:52:02;102740.00;;;5.14;100.00
60373;BME280;46216;52.220;5.134;2023-01-29T11:54:57;102733.84;;;5.12;100.00
60373;BME280;46216;52.220;5.134;2023-01-29T11:57:25;102732.09;;;5.13;100.00
60373;BME280;46216;52.220;5.134;2023-01-29T11:59:53;102725.88;;;5.17;100.00
60373;BME280;46216;52.220;5.134;2023-01-29T12:02:24;102724.25;;;5.10;100.00
60373;BME280;46216;52.220;5.134;2023-01-29T12:04:56;102716.22;;;5.14;100.00
60373;BME280;46216;52.220;5.134;2023-01-29T12:07:23;102714.44;;;5.15;100.00
60373;BME280;46216;52.220;5.134;2023-01-29T12:09:57;102718.81;;;5.17;100.00
60373;BME280;46216;52.220;5.134;2023-01-29T12:12:34;102706.44;;;5.18;100.00
60373;BME280;46216;52.220;5.134;2023-01-29T12:15:15;102702.88;;;5.19;100.00
60373;BME280;46216;52.220;5.134;2023-01-29T12:17:46;102696.69;;;5.21;100.00
60373;BME280;46216;52.220;5.134;2023-01-29T12:20:22;102695.81;;;5.21;100.00
60373;BME280;46216;52.220;5.134;2023-01-29T12:22:57;102684.16;;;5.30;100.00
60373;BME280;46216;52.220;5.134;2023-01-29T12:25:46;102686.03;;;5.25;100.00
60373;BME280;46216;52.220;5.134;2023-01-29T12:28:35;102683.41;;;5.25;100.00
60373;BME280;46216;52.220;5.134;2023-01-29T12:31:24;102677.16;;;5.29;100.00
60373;BME280;46216;52.220;5.134;2023-01-29T12:34:09;102663.09;;;5.27;100.00
60373;BME280;46216;52.220;5.134;2023-01-29T12:36:42;102659.50;;;5.31;100.00
60373;BME280;46216;52.220;5.134;2023-01-29T12:39:17;102655.88;;;5.35;100.00
60373;BME280;46216;52.220;5.134;2023-01-29T12:41:58;102646.13;;;5.37;100.00
60373;BME280;46216;52.220;5.134;2023-01-29T12:44:35;102647.00;;;5.37;100.00
60373;BME280;46216;52.220;5.134;2023-01-29T12:47:10;102631.16;;;5.37;100.00
60373;BME280;46216;52.220;5.134;2023-01-29T12:49:38;102625.84;;;5.37;100.00
60373;BME280;46216;52.220;5.134;2023-01-29T12:54:37;102601.81;;;5.48;100.00
60373;BME280;46216;52.220;5.134;2023-01-29T12:57:09;102598.06;;;5.57;100.00
60373;BME280;46216;52.220;5.134;2023-01-29T12:59:42;102587.28;;;5.66;100.00
60373;BME280;46216;52.220;5.134;2023-01-29T13:04:56;102562.34;;;5.76;100.00
60373;BME280;46216;52.220;5.134;2023-01-29T13:07:28;102561.47;;;5.76;100.00
60373;BME280;46216;52.220;5.134;2023-01-29T13:10:02;102565.84;;;5.77;100.00
60373;BME280;46216;52.220;5.134;2023-01-29T13:12:30;102556.91;;;5.81;100.00
60373;BME280;46216;52.220;5.134;2023-01-29T13:15:02;102547.94;;;5.88;100.00
60373;BME280;46216;52.220;5.134;2023-01-29T13:17:36;102547.94;;;5.88;100.00
60373;BME280;46216;52.220;5.134;2023-01-29T13:20:12;102530.22;;;5.90;100.00
60373;BME280;46216;52.220;5.134;2023-01-29T13:22:41;102527.59;;;5.90;100.00
60373;BME280;46216;52.220;5.134;2023-01-29T13:25:15;102523.03;;;5.97;100.00
60373;BME280;46216;52.220;5.134;2023-01-29T13:27:42;102522.25;;;5.93;100.00
60373;BME280;46216;52.220;5.134;2023-01-29T13:30:24;102518.69;;;5.94;100.00
60373;BME280;46216;52.220;5.134;2023-01-29T13:32:54;102512.44;;;5.97;100.00
60373;BME280;46216;52.220;5.134;2023-01-29T13:35:34;102506.13;;;6.02;100.00
60373;BME280;46216;52.220;5.134;2023-01-29T13:38:01;102509.59;;;6.04;100.00
60373;BME280;46216;52.220;5.134;2023-01-29T13:40:29;102504.44;;;6.00;100.00
60373;BME280;46216;52.220;5.134;2023-01-29T13:42:56;102499.91;;;6.03;100.00
60373;BME280;46216;52.220;5.134;2023-01-29T13:45:32;102493.81;;;6.01;100.00
60373;BME280;46216;52.220;5.134;2023-01-29T13:48:27;102499.09;;;6.01;100.00
60373;BME280;46216;52.220;5.134;2023-01-29T13:50:59;102491.16;;;6.01;100.00
60373;BME280;46216;52.220;5.134;2023-01-29T13:53:28;102498.13;;;6.04;100.00
60373;BME280;46216;52.220;5.134;2023-01-29T13:59:00;102490.34;;;5.98;100.00
60373;BME280;46216;52.220;5.134;2023-01-29T14:04:22;102475.38;;;5.98;100.00
60373;BME280;46216;52.220;5.134;2023-01-29T14:06:53;102484.34;;;5.92;100.00
60373;BME280;46216;52.220;5.134;2023-01-29T14:12:29;102483.38;;;5.95;100.00
60373;BME280;46216;52.220;5.134;2023-01-29T14:15:00;102476.41;;;5.92;100.00
60373;BME280;46216;52.220;5.134;2023-01-29T14:17:27;102467.50;;;5.95;100.00
60373;BME280;46216;52.220;5.134;2023-01-29T14:20:16;102471.13;;;5.91;100.00
60373;BME280;46216;52.220;5.134;2023-01-29T14:22:43;102472.72;;;5.98;100.00